createdAt,value
2018-09-22T00:00:32.839Z,56.97
2018-09-22T00:03:01.407Z,57.25
2018-09-22T00:05:29.930Z,57.19
2018-09-22T00:07:58.687Z,56.74
2018-09-22T00:10:27.346Z,57.26
2018-09-22T00:12:56.018Z,56.73
2018-09-22T00:15:24.533Z,57.12
2018-09-22T00:17:52.996Z,57.16
2018-09-22T00:20:22.078Z,56.98
2018-09-22T00:22:50.553Z,57.27
2018-09-22T00:25:32.695Z,56.64
2018-09-22T00:28:01.261Z,56.17
2018-09-22T00:30:29.863Z,55.68
2018-09-22T00:32:58.402Z,56.25
2018-09-22T00:35:26.965Z,55.91
2018-09-22T00:37:55.467Z,55.52
2018-09-22T00:40:23.993Z,56.33
2018-09-22T00:42:52.593Z,56.13
2018-09-22T00:45:30.586Z,55.46
2018-09-22T00:47:59.462Z,55.09
2018-09-22T00:50:27.906Z,55.24
2018-09-22T00:52:56.410Z,55.31
2018-09-22T00:55:25.376Z,54.48
2018-09-22T00:57:54.000Z,55.34
2018-09-22T01:00:22.806Z,54.79
2018-09-22T01:02:51.348Z,54.85
2018-09-22T01:05:19.975Z,54.43
2018-09-22T01:07:48.607Z,54.61
2018-09-22T01:10:17.122Z,54.45
2018-09-22T01:12:45.671Z,54.86
2018-09-22T01:15:14.170Z,54.72
2018-09-22T01:17:42.746Z,54.36
2018-09-22T01:20:11.454Z,54.86
2018-09-22T01:22:40.238Z,54.96
2018-09-22T01:25:09.228Z,55.03
2018-09-22T01:27:37.714Z,54.91
2018-09-22T01:30:06.316Z,54.52
2018-09-22T01:32:35.365Z,54.63
2018-09-22T01:35:05.072Z,54.65
2018-09-22T01:37:33.802Z,55.25
2018-09-22T01:40:02.686Z,55.38
2018-09-22T01:42:31.369Z,54.82
2018-09-22T01:45:00.098Z,55.00
2018-09-22T01:47:28.610Z,55.01
2018-09-22T01:49:57.210Z,55.26
2018-09-22T01:52:25.826Z,55.42
2018-09-22T01:54:54.354Z,55.14
2018-09-22T01:57:22.970Z,55.54
2018-09-22T01:59:51.624Z,56.11
2018-09-22T02:02:20.260Z,55.92
2018-09-22T02:04:48.818Z,55.84
2018-09-22T02:07:17.348Z,56.72
2018-09-22T02:09:46.078Z,56.48
2018-09-22T02:12:14.808Z,56.78
2018-09-22T02:14:48.583Z,56.15
2018-09-22T02:17:18.194Z,56.32
2018-09-22T02:19:47.165Z,56.21
2018-09-22T02:22:16.471Z,56.62
2018-09-22T02:24:44.966Z,57.04
2018-09-22T02:27:13.486Z,56.91
2018-09-22T02:29:42.050Z,56.79
2018-09-22T02:32:10.526Z,56.64
2018-09-22T02:34:39.088Z,57.42
2018-09-22T02:37:07.616Z,57.05
2018-09-22T02:39:36.980Z,57.35
2018-09-22T02:42:05.452Z,57.39
2018-09-22T02:44:33.984Z,57.16
2018-09-22T02:47:02.426Z,57.41
2018-09-22T02:49:31.184Z,57.95
2018-09-22T02:51:59.802Z,58.00
2018-09-22T02:54:28.230Z,58.09
2018-09-22T02:56:56.769Z,58.52
2018-09-22T02:59:25.339Z,57.86
2018-09-22T03:01:53.878Z,58.18
2018-09-22T03:04:22.499Z,57.76
2018-09-22T03:06:51.033Z,58.13
2018-09-22T03:09:19.532Z,58.27
2018-09-22T03:11:48.138Z,58.75
2018-09-22T03:14:17.257Z,58.77
2018-09-22T03:16:46.157Z,58.52
2018-09-22T03:19:14.925Z,58.55
2018-09-22T03:21:43.534Z,58.66
2018-09-22T03:24:12.934Z,58.29
2018-09-22T03:26:41.556Z,58.23
2018-09-22T03:29:10.141Z,58.91
2018-09-22T03:31:38.971Z,59.04
2018-09-22T03:34:07.778Z,58.89
2018-09-22T03:36:36.737Z,58.80
2018-09-22T03:39:07.682Z,59.20
2018-09-22T03:41:36.322Z,59.45
2018-09-22T03:44:04.913Z,59.18
2018-09-22T03:46:33.657Z,59.15
2018-09-22T03:49:02.421Z,59.13
2018-09-22T03:51:31.274Z,59.29
2018-09-22T03:53:59.792Z,59.25
2018-09-22T03:56:28.287Z,59.51
2018-09-22T03:58:57.030Z,59.16
2018-09-22T04:01:25.658Z,59.24
2018-09-22T04:03:54.238Z,59.44
2018-09-22T04:06:23.306Z,59.48
2018-09-22T04:08:52.088Z,59.56
2018-09-22T04:11:20.678Z,59.77
2018-09-22T04:13:49.564Z,59.76
2018-09-22T04:16:18.174Z,59.42
2018-09-22T04:18:46.951Z,59.78
2018-09-22T04:21:15.416Z,59.68
2018-09-22T04:23:44.086Z,59.77
2018-09-22T04:26:12.753Z,59.96
2018-09-22T04:28:41.230Z,60.06
2018-09-22T04:31:10.208Z,59.51
2018-09-22T04:33:38.914Z,59.85
2018-09-22T04:36:07.640Z,59.35
2018-09-22T04:38:36.158Z,59.14
2018-09-22T04:41:05.059Z,59.13
2018-09-22T04:43:33.673Z,59.66
2018-09-22T04:46:02.108Z,59.06
2018-09-22T04:48:30.579Z,59.45
2018-09-22T04:50:59.164Z,59.53
2018-09-22T04:53:27.707Z,59.77
2018-09-22T04:55:56.858Z,59.69
2018-09-22T04:58:25.543Z,59.89
2018-09-22T05:00:54.160Z,59.58
2018-09-22T05:03:22.938Z,60.09
2018-09-22T05:05:51.592Z,60.17
2018-09-22T05:08:20.206Z,60.42
2018-09-22T05:10:48.653Z,60.64
2018-09-22T05:13:17.246Z,60.38
2018-09-22T05:15:45.820Z,60.64
2018-09-22T05:18:14.741Z,60.84
2018-09-22T05:20:43.260Z,60.70
2018-09-22T05:23:12.032Z,60.78
2018-09-22T05:25:40.734Z,60.85
2018-09-22T05:28:09.383Z,61.34
2018-09-22T05:30:38.263Z,60.97
2018-09-22T05:33:06.937Z,61.29
2018-09-22T05:35:35.532Z,61.50
2018-09-22T05:38:04.088Z,61.72
2018-09-22T05:40:32.638Z,61.56
2018-09-22T05:43:01.190Z,60.95
2018-09-22T05:45:29.849Z,61.33
2018-09-22T05:47:58.342Z,61.85
2018-09-22T05:50:27.043Z,62.10
2018-09-22T05:52:55.650Z,61.86
2018-09-22T05:55:24.491Z,61.62
2018-09-22T05:57:53.358Z,62.11
2018-09-22T06:00:21.978Z,62.35
2018-09-22T06:02:50.526Z,62.40
2018-09-22T06:05:18.984Z,62.74
2018-09-22T06:07:47.906Z,62.73
2018-09-22T06:10:16.864Z,62.38
2018-09-22T06:12:45.693Z,62.45
2018-09-22T06:15:14.242Z,63.07
2018-09-22T06:17:42.946Z,62.41
2018-09-22T06:20:11.753Z,62.72
2018-09-22T06:22:40.443Z,62.99
2018-09-22T06:25:09.006Z,62.94
2018-09-22T06:27:37.483Z,62.50
2018-09-22T06:30:06.102Z,62.76
2018-09-22T06:32:34.657Z,62.84
2018-09-22T06:35:03.541Z,62.78
2018-09-22T06:37:32.205Z,62.49
2018-09-22T06:40:00.818Z,62.76
2018-09-22T06:42:30.268Z,62.25
2018-09-22T06:44:59.655Z,62.06
2018-09-22T06:47:28.278Z,61.56
2018-09-22T06:49:57.038Z,61.94
2018-09-22T06:52:25.768Z,61.72
2018-09-22T06:54:54.415Z,61.64
2018-09-22T06:57:23.031Z,61.31
2018-09-22T06:59:51.871Z,61.24
2018-09-22T07:02:20.937Z,61.26
2018-09-22T07:04:49.806Z,61.48
2018-09-22T07:07:18.564Z,60.91
2018-09-22T07:09:47.178Z,60.89
2018-09-22T07:12:15.726Z,61.04
2018-09-22T07:14:44.468Z,61.15
2018-09-22T07:17:13.237Z,60.97
2018-09-22T07:19:41.845Z,60.80
2018-09-22T07:22:15.571Z,60.85
2018-09-22T07:24:44.513Z,60.46
2018-09-22T07:27:13.217Z,60.42
2018-09-22T07:29:41.904Z,59.98
2018-09-22T07:32:10.644Z,59.88
2018-09-22T07:34:40.717Z,60.03
2018-09-22T07:37:09.384Z,59.68
2018-09-22T07:39:38.239Z,59.92
2018-09-22T07:42:07.067Z,59.78
2018-09-22T07:44:35.706Z,58.87
2018-09-22T07:47:04.708Z,58.69
2018-09-22T07:49:33.321Z,59.21
2018-09-22T07:52:02.180Z,58.82
2018-09-22T07:54:30.817Z,58.09
2018-09-22T07:56:59.658Z,57.35
2018-09-22T07:59:28.262Z,57.46
2018-09-22T08:01:56.903Z,57.15
2018-09-22T08:04:25.564Z,56.54
2018-09-22T08:06:54.136Z,56.80
2018-09-22T08:09:22.812Z,55.93
2018-09-22T08:11:51.620Z,56.33
2018-09-22T08:14:20.203Z,56.51
2018-09-22T08:16:49.590Z,56.11
2018-09-22T08:19:18.212Z,55.36
2018-09-22T08:21:47.267Z,55.39
2018-09-22T08:24:15.968Z,55.09
2018-09-22T08:26:45.095Z,54.13
2018-09-22T08:29:14.041Z,54.10
2018-09-22T08:31:42.686Z,52.91
2018-09-22T08:34:11.318Z,53.44
2018-09-22T08:36:40.024Z,53.54
2018-09-22T08:39:10.652Z,53.48
2018-09-22T08:41:39.241Z,53.72
2018-09-22T08:44:07.996Z,52.59
2018-09-22T08:46:37.975Z,52.19
2018-09-22T08:49:06.860Z,51.52
2018-09-22T08:51:35.841Z,51.37
2018-09-22T08:54:05.054Z,51.23
2018-09-22T08:56:33.680Z,51.23
2018-09-22T08:59:03.210Z,51.05
2018-09-22T09:01:31.765Z,51.38
2018-09-22T09:04:00.397Z,50.11
2018-09-22T09:06:28.984Z,50.25
2018-09-22T09:08:57.652Z,50.02
2018-09-22T09:11:26.223Z,50.57
2018-09-22T09:13:54.795Z,49.98
2018-09-22T09:16:23.626Z,49.35
2018-09-22T09:18:54.326Z,49.31
2018-09-22T09:21:23.747Z,48.81
2018-09-22T09:23:52.384Z,48.86
2018-09-22T09:26:21.589Z,48.20
2018-09-22T09:28:50.342Z,47.47
2018-09-22T09:31:20.328Z,47.62
2018-09-22T09:33:50.796Z,46.65
2018-09-22T09:36:20.444Z,46.30
2018-09-22T09:38:51.079Z,46.01
2018-09-22T09:41:19.764Z,45.97
2018-09-22T09:43:49.263Z,45.71
2018-09-22T09:46:18.055Z,45.68
2018-09-22T09:48:46.644Z,46.93
2018-09-22T09:51:15.405Z,47.95
2018-09-22T09:53:44.109Z,47.68
2018-09-22T09:56:12.626Z,48.15
2018-09-22T09:58:41.308Z,48.83
2018-09-22T10:01:10.009Z,48.20
2018-09-22T10:03:38.737Z,49.02
2018-09-22T10:06:07.535Z,49.12
2018-09-22T10:08:36.358Z,48.82
2018-09-22T10:11:05.108Z,47.93
2018-09-22T10:13:33.739Z,46.96
2018-09-22T10:16:02.489Z,44.80
2018-09-22T10:18:31.083Z,44.72
2018-09-22T10:20:59.909Z,45.77
2018-09-22T10:23:28.498Z,46.56
2018-09-22T10:25:57.080Z,47.95
2018-09-22T10:28:25.727Z,47.24
2018-09-22T10:30:54.541Z,47.27
2018-09-22T10:33:23.107Z,47.60
2018-09-22T10:35:51.850Z,47.19
2018-09-22T10:38:20.556Z,47.21
2018-09-22T10:40:49.175Z,46.84
2018-09-22T10:43:17.847Z,45.92
2018-09-22T10:45:46.450Z,46.15
2018-09-22T10:48:15.167Z,47.34
2018-09-22T10:50:44.075Z,47.27
2018-09-22T10:53:12.913Z,46.97
2018-09-22T10:55:41.519Z,47.42
2018-09-22T10:58:10.166Z,47.85
2018-09-22T11:00:38.626Z,46.80
2018-09-22T11:03:07.200Z,47.15
2018-09-22T11:05:35.891Z,47.48
2018-09-22T11:08:04.411Z,47.20
2018-09-22T11:10:33.073Z,46.67
2018-09-22T11:13:01.894Z,47.05
2018-09-22T11:15:30.532Z,46.32
2018-09-22T11:17:59.156Z,45.77
2018-09-22T11:20:27.913Z,45.53
2018-09-22T11:22:56.527Z,45.96
2018-09-22T11:25:25.131Z,45.63
2018-09-22T11:27:53.899Z,45.63
2018-09-22T11:30:22.637Z,45.87
2018-09-22T11:32:51.317Z,46.14
2018-09-22T11:35:20.357Z,46.08
2018-09-22T11:37:49.725Z,46.22
2018-09-22T11:40:18.549Z,45.90
2018-09-22T11:42:47.911Z,45.46
2018-09-22T11:45:16.701Z,45.57
2018-09-22T11:47:45.417Z,44.96
2018-09-22T11:50:14.167Z,44.87
2018-09-22T11:52:42.983Z,43.96
2018-09-22T11:55:11.685Z,43.49
2018-09-22T11:57:40.637Z,43.22
2018-09-22T12:00:09.447Z,42.98
2018-09-22T12:02:38.213Z,43.07
2018-09-22T12:05:07.111Z,43.77
2018-09-22T12:07:35.847Z,43.21
2018-09-22T12:10:04.580Z,44.07
2018-09-22T12:12:33.361Z,44.22
2018-09-22T12:15:02.574Z,43.57
2018-09-22T12:17:31.292Z,43.90
2018-09-22T12:19:59.949Z,43.40
2018-09-22T12:22:28.621Z,42.98
2018-09-22T12:24:57.567Z,42.88
2018-09-22T12:27:26.623Z,41.83
2018-09-22T12:29:56.254Z,41.54
2018-09-22T12:32:24.856Z,41.54
2018-09-22T12:34:53.800Z,40.76
2018-09-22T12:37:24.554Z,41.19
2018-09-22T12:39:53.721Z,41.38
2018-09-22T12:42:22.577Z,41.43
2018-09-22T12:44:51.129Z,41.88
2018-09-22T12:47:19.734Z,42.36
2018-09-22T12:49:48.283Z,42.11
2018-09-22T12:52:16.899Z,42.42
2018-09-22T12:54:46.095Z,42.13
2018-09-22T12:57:16.261Z,42.13
2018-09-22T12:59:46.608Z,42.28
2018-09-22T13:02:15.493Z,42.59
2018-09-22T13:04:44.088Z,42.74
2018-09-22T13:07:12.824Z,43.32
2018-09-22T13:09:41.351Z,42.06
2018-09-22T13:12:12.033Z,41.77
2018-09-22T13:17:21.341Z,41.56
2018-09-22T13:19:51.710Z,42.55
2018-09-22T13:22:20.279Z,42.48
2018-09-22T13:24:51.490Z,42.90
2018-09-22T13:27:20.181Z,42.83
2018-09-22T13:29:48.731Z,43.12
2018-09-22T13:32:18.343Z,43.09
2018-09-22T13:34:47.021Z,42.78
2018-09-22T13:37:15.824Z,42.08
2018-09-22T13:39:44.422Z,41.99
2018-09-22T13:42:13.129Z,42.76
2018-09-22T13:44:41.817Z,42.55
2018-09-22T13:47:10.361Z,42.95
2018-09-22T13:49:39.217Z,42.92
2018-09-22T13:52:07.761Z,42.38
2018-09-22T13:54:36.491Z,42.59
2018-09-22T13:57:05.096Z,41.98
2018-09-22T13:59:33.755Z,41.99
2018-09-22T14:02:02.409Z,41.59
2018-09-22T14:04:31.299Z,41.31
2018-09-22T14:07:00.040Z,40.79
2018-09-22T14:09:28.929Z,41.10
2018-09-22T14:11:57.688Z,40.68
2018-09-22T14:14:26.257Z,41.22
2018-09-22T14:16:55.317Z,40.83
2018-09-22T14:19:24.052Z,40.87
2018-09-22T14:21:52.730Z,40.88
2018-09-22T14:24:21.309Z,40.94
2018-09-22T14:26:50.111Z,41.15
2018-09-22T14:29:18.997Z,40.53
2018-09-22T14:31:47.632Z,41.07
2018-09-22T14:34:16.273Z,41.00
2018-09-22T14:36:45.098Z,40.94
2018-09-22T14:39:13.659Z,41.39
2018-09-22T14:41:42.261Z,40.81
2018-09-22T14:44:10.885Z,40.88
2018-09-22T14:46:39.449Z,41.28
2018-09-22T14:49:07.962Z,41.05
2018-09-22T14:51:36.459Z,40.74
2018-09-22T14:54:05.018Z,40.92
2018-09-22T14:56:33.683Z,40.51
2018-09-22T14:59:02.174Z,39.79
2018-09-22T15:01:31.049Z,40.49
2018-09-22T15:03:59.929Z,40.37
2018-09-22T15:06:28.945Z,40.18
2018-09-22T15:08:58.231Z,40.19
2018-09-22T15:11:27.643Z,40.02
2018-09-22T15:13:56.107Z,40.65
2018-09-22T15:16:24.611Z,40.30
2018-09-22T15:18:53.297Z,40.44
2018-09-22T15:21:21.880Z,41.02
2018-09-22T15:23:50.568Z,40.53
2018-09-22T15:26:19.213Z,40.67
2018-09-22T15:28:48.655Z,40.36
2018-09-22T15:31:17.279Z,39.67
2018-09-22T15:33:45.938Z,39.72
2018-09-22T15:36:14.591Z,39.65
2018-09-22T15:38:43.237Z,39.68
2018-09-22T15:41:11.853Z,40.03
2018-09-22T15:43:40.579Z,39.46
2018-09-22T15:46:09.245Z,39.82
2018-09-22T15:48:37.846Z,39.86
2018-09-22T15:51:06.627Z,39.85
2018-09-22T15:53:35.180Z,39.56
2018-09-22T15:56:04.083Z,40.18
2018-09-22T15:58:32.771Z,40.40
2018-09-22T16:01:01.576Z,40.83
2018-09-22T16:03:30.049Z,40.51
2018-09-22T16:05:58.740Z,40.73
2018-09-22T16:08:27.345Z,41.17
2018-09-22T16:10:55.795Z,40.81
2018-09-22T16:13:25.215Z,39.91
2018-09-22T16:15:54.827Z,40.30
2018-09-22T16:18:23.598Z,41.16
2018-09-22T16:20:52.295Z,41.40
2018-09-22T16:23:21.880Z,41.10
2018-09-22T16:25:50.575Z,40.37
2018-09-22T16:28:19.670Z,40.62
2018-09-22T16:30:48.287Z,40.57
2018-09-22T16:33:17.365Z,40.71
2018-09-22T16:35:46.134Z,40.88
2018-09-22T16:38:14.911Z,41.19
2018-09-22T16:40:43.585Z,41.36
2018-09-22T16:43:12.203Z,40.56
2018-09-22T16:45:40.817Z,39.98
2018-09-22T16:48:09.447Z,40.36
2018-09-22T16:50:38.065Z,40.45
2018-09-22T16:53:06.618Z,40.80
2018-09-22T16:55:35.283Z,40.91
2018-09-22T16:58:04.133Z,41.16
2018-09-22T17:00:32.623Z,40.93
2018-09-22T17:03:01.471Z,41.02
2018-09-22T17:05:30.075Z,40.96
2018-09-22T17:07:58.535Z,41.24
2018-09-22T17:10:27.153Z,40.82
2018-09-22T17:12:55.800Z,40.96
2018-09-22T17:15:24.325Z,40.52
2018-09-22T17:17:52.895Z,40.60
2018-09-22T17:20:21.603Z,40.90
2018-09-22T17:22:50.372Z,40.99
2018-09-22T17:25:18.947Z,41.50
2018-09-22T17:27:47.729Z,41.10
2018-09-22T17:30:16.265Z,41.44
2018-09-22T17:32:44.739Z,41.54
2018-09-22T17:35:13.468Z,41.62
2018-09-22T17:37:42.106Z,41.37
2018-09-22T17:40:10.814Z,41.65
2018-09-22T17:42:39.316Z,41.64
2018-09-22T17:45:08.014Z,41.38
2018-09-22T17:47:36.685Z,41.29
2018-09-22T17:50:05.597Z,41.33
2018-09-22T17:52:34.189Z,41.88
2018-09-22T17:55:02.977Z,41.78
2018-09-22T17:57:31.721Z,41.97
2018-09-22T18:00:00.427Z,41.72
2018-09-22T18:02:28.991Z,41.79
2018-09-22T18:04:57.637Z,42.02
2018-09-22T18:07:26.327Z,42.05
2018-09-22T18:09:54.969Z,42.10
2018-09-22T18:12:23.533Z,42.49
2018-09-22T18:14:52.159Z,42.55
2018-09-22T18:17:20.845Z,42.47
2018-09-22T18:19:49.739Z,42.45
2018-09-22T18:22:18.416Z,42.73
2018-09-22T18:24:47.245Z,43.11
2018-09-22T18:27:15.791Z,42.92
2018-09-22T18:29:44.453Z,43.15
2018-09-22T18:32:13.157Z,43.63
2018-09-22T18:34:42.620Z,43.37
2018-09-22T18:37:11.145Z,43.58
2018-09-22T18:39:39.785Z,43.99
2018-09-22T18:42:08.467Z,43.30
2018-09-22T18:44:37.094Z,43.81
2018-09-22T18:47:05.703Z,43.91
2018-09-22T18:49:34.351Z,44.10
2018-09-22T18:52:03.112Z,44.42
2018-09-22T18:54:31.844Z,44.90
2018-09-22T18:57:00.411Z,45.28
2018-09-22T18:59:29.051Z,45.57
2018-09-22T19:01:58.203Z,45.40
2018-09-22T19:04:27.099Z,46.08
2018-09-22T19:06:55.707Z,45.74
2018-09-22T19:09:24.520Z,45.67
2018-09-22T19:11:54.405Z,45.78
2018-09-22T19:14:31.746Z,46.27
2018-09-22T19:17:05.765Z,46.00
2018-09-22T19:19:39.753Z,46.43
2018-09-22T19:22:11.455Z,46.32
2018-09-22T19:24:47.116Z,47.02
2018-09-22T19:27:18.888Z,47.23
2018-09-22T19:29:51.372Z,46.76
2018-09-22T19:32:27.073Z,46.67
2018-09-22T19:35:33.282Z,46.76
2018-09-22T19:38:09.078Z,47.05
2018-09-22T19:40:47.347Z,47.24
2018-09-22T19:43:25.867Z,47.82
2018-09-22T19:45:57.452Z,48.47
2018-09-22T19:48:34.118Z,48.45
2018-09-22T19:51:05.520Z,48.58
2018-09-22T19:53:34.171Z,48.92
2018-09-22T19:56:02.848Z,49.33
2018-09-22T19:58:31.827Z,48.76
2018-09-22T20:01:00.422Z,48.78
2018-09-22T20:03:29.047Z,49.38
2018-09-22T20:05:57.583Z,48.82
2018-09-22T20:08:26.307Z,49.07
2018-09-22T20:10:54.880Z,49.40
2018-09-22T20:13:23.985Z,49.41
2018-09-22T20:15:52.755Z,49.10
2018-09-22T20:18:21.537Z,49.54
2018-09-22T20:20:51.276Z,50.36
2018-09-22T20:23:19.855Z,50.05
2018-09-22T20:25:48.455Z,50.74
2018-09-22T20:28:17.199Z,51.19
2018-09-22T20:30:46.589Z,51.29
2018-09-22T20:33:15.186Z,51.65
2018-09-22T20:35:44.141Z,52.23
2018-09-22T20:38:16.020Z,52.80
2018-09-22T20:40:45.572Z,53.95
2018-09-22T20:45:53.118Z,54.92
2018-09-22T20:48:22.132Z,55.49
2018-09-22T20:50:52.491Z,56.03
2018-09-22T20:53:21.001Z,56.02
2018-09-22T20:55:49.770Z,56.92
2018-09-22T20:58:18.228Z,57.38
2018-09-22T21:00:46.749Z,58.17
2018-09-22T21:03:15.227Z,58.30
2018-09-22T21:05:43.963Z,58.72
2018-09-22T21:08:12.490Z,59.78
2018-09-22T21:10:41.095Z,59.78
2018-09-22T21:13:09.700Z,60.42
2018-09-22T21:15:38.404Z,60.38
2018-09-22T21:18:07.056Z,60.77
2018-09-22T21:20:35.648Z,61.40
2018-09-22T21:23:04.199Z,60.84
2018-09-22T21:25:32.716Z,60.92
2018-09-22T21:28:01.323Z,61.65
2018-09-22T21:30:29.910Z,61.83
2018-09-22T21:32:58.543Z,61.62
2018-09-22T21:35:27.086Z,62.04
2018-09-22T21:37:55.645Z,61.81
2018-09-22T21:40:24.332Z,61.72
2018-09-22T21:42:52.911Z,61.75
2018-09-22T21:45:21.496Z,62.05
2018-09-22T21:47:50.104Z,61.37
2018-09-22T21:50:18.974Z,61.35
2018-09-22T21:52:47.866Z,61.48
2018-09-22T21:55:16.480Z,61.47
2018-09-22T21:57:45.246Z,61.45
2018-09-22T22:00:13.986Z,61.54
2018-09-22T22:02:42.590Z,62.11
2018-09-22T22:05:11.164Z,62.14
2018-09-22T22:07:39.677Z,63.00
2018-09-22T22:10:08.267Z,63.00
2018-09-22T22:12:36.845Z,63.08
2018-09-22T22:15:05.598Z,63.15
2018-09-22T22:17:34.118Z,63.67
2018-09-22T22:20:02.618Z,63.63
2018-09-22T22:22:31.188Z,64.11
2018-09-22T22:24:59.774Z,64.05
2018-09-22T22:27:28.216Z,64.16
2018-09-22T22:29:57.346Z,65.19
2018-09-22T22:32:25.874Z,64.11
2018-09-22T22:34:54.582Z,64.41
2018-09-22T22:37:24.022Z,64.55
2018-09-22T22:39:52.565Z,64.34
2018-09-22T22:42:20.986Z,63.94
2018-09-22T22:44:49.622Z,64.79
2018-09-22T22:47:18.372Z,64.42
2018-09-22T22:49:46.998Z,64.77
2018-09-22T22:52:15.745Z,65.03
2018-09-22T22:54:44.298Z,65.15
2018-09-22T22:57:12.704Z,65.27
2018-09-22T22:59:41.291Z,65.10
2018-09-22T23:02:10.868Z,65.26
2018-09-22T23:04:39.416Z,65.42
2018-09-22T23:07:07.958Z,66.06
2018-09-22T23:09:36.609Z,66.09
2018-09-22T23:12:05.175Z,66.22
2018-09-22T23:14:33.759Z,66.49
2018-09-22T23:17:02.278Z,66.41
2018-09-22T23:19:30.871Z,66.28
2018-09-22T23:21:59.442Z,66.69
2018-09-22T23:24:28.182Z,67.02
2018-09-22T23:26:56.714Z,66.66
2018-09-22T23:29:25.253Z,66.86
2018-09-22T23:31:54.184Z,66.82
2018-09-22T23:34:22.762Z,67.10
2018-09-22T23:36:51.361Z,66.85
2018-09-22T23:39:19.992Z,67.02
2018-09-22T23:41:48.648Z,67.07
2018-09-22T23:44:17.316Z,67.41
2018-09-22T23:46:45.948Z,67.83
2018-09-22T23:49:14.478Z,68.40
2018-09-22T23:51:43.166Z,68.01
2018-09-22T23:54:11.764Z,68.66
2018-09-22T23:56:40.364Z,68.55
2018-09-22T23:59:09.182Z,68.72
